sensor_id;sensor_type;location;lat;lon;timestamp;temperature;humidity
2611;DHT22;5612;51.134;17.058;2023-02-23T00:01:42;3.20;99.90
2611;DHT22;5612;51.134;17.058;2023-02-23T00:04:11;3.20;99.90
2611;DHT22;5612;51.134;17.058;2023-02-23T00:06:41;3.10;99.90
2611;DHT22;5612;51.134;17.058;2023-02-23T00:09:11;3.00;99.90
2611;DHT22;5612;51.134;17.058;2023-02-23T00:11:50;3.00;1.00
2611;DHT22;5612;51.134;17.058;2023-02-23T00:14:20;2.90;96.60
2611;DHT22;5612;51.134;17.058;2023-02-23T00:16:53;2.90;34.80
2611;DHT22;5612;51.134;17.058;2023-02-23T00:19:23;2.90;99.90
2611;DHT22;5612;51.134;17.058;2023-02-23T00:21:53;2.90;28.70
2611;DHT22;5612;51.134;17.058;2023-02-23T00:24:25;2.90;1.00
2611;DHT22;5612;51.134;17.058;2023-02-23T00:26:55;2.90;1.00
2611;DHT22;5612;51.134;17.058;2023-02-23T00:29:24;2.90;1.00
2611;DHT22;5612;51.134;17.058;2023-02-23T00:31:55;3.00;1.00
2611;DHT22;5612;51.134;17.058;2023-02-23T00:34:25;2.90;99.90
2611;DHT22;5612;51.134;17.058;2023-02-23T00:36:55;2.80;1.00
2611;DHT22;5612;51.134;17.058;2023-02-23T00:39:24;2.80;1.00
2611;DHT22;5612;51.134;17.058;2023-02-23T00:41:56;2.80;1.00
2611;DHT22;5612;51.134;17.058;2023-02-23T00:44:30;2.70;19.80
2611;DHT22;5612;51.134;17.058;2023-02-23T00:47:02;2.70;78.10
2611;DHT22;5612;51.134;17.058;2023-02-23T00:49:32;2.70;99.90
2611;DHT22;5612;51.134;17.058;2023-02-23T00:52:01;2.60;99.90
2611;DHT22;5612;51.134;17.058;2023-02-23T00:54:32;2.70;74.50
2611;DHT22;5612;51.134;17.058;2023-02-23T00:57:01;2.60;69.20
2611;DHT22;5612;51.134;17.058;2023-02-23T00:59:31;2.70;99.90
2611;DHT22;5612;51.134;17.058;2023-02-23T01:02:02;2.60;1.00
2611;DHT22;5612;51.134;17.058;2023-02-23T01:04:32;2.60;99.90
2611;DHT22;5612;51.134;17.058;2023-02-23T01:07:01;2.60;99.90
2611;DHT22;5612;51.134;17.058;2023-02-23T01:09:34;2.60;99.90
2611;DHT22;5612;51.134;17.058;2023-02-23T01:12:05;2.50;99.90
2611;DHT22;5612;51.134;17.058;2023-02-23T01:14:36;2.50;99.90
2611;DHT22;5612;51.134;17.058;2023-02-23T01:17:07;2.50;99.90
2611;DHT22;5612;51.134;17.058;2023-02-23T01:19:37;2.50;99.90
2611;DHT22;5612;51.134;17.058;2023-02-23T01:22:06;2.40;99.90
2611;DHT22;5612;51.134;17.058;2023-02-23T01:24:37;2.40;99.90
2611;DHT22;5612;51.134;17.058;2023-02-23T01:27:06;2.40;99.90
2611;DHT22;5612;51.134;17.058;2023-02-23T01:29:36;2.40;99.90
2611;DHT22;5612;51.134;17.058;2023-02-23T01:32:08;2.30;99.90
2611;DHT22;5612;51.134;17.058;2023-02-23T01:34:38;2.30;99.90
2611;DHT22;5612;51.134;17.058;2023-02-23T01:37:07;2.30;99.90
2611;DHT22;5612;51.134;17.058;2023-02-23T01:39:37;2.30;99.90
2611;DHT22;5612;51.134;17.058;2023-02-23T01:42:10;2.30;99.90
2611;DHT22;5612;51.134;17.058;2023-02-23T01:45:16;2.30;99.90
2611;DHT22;5612;51.134;17.058;2023-02-23T01:47:48;2.30;99.90
2611;DHT22;5612;51.134;17.058;2023-02-23T01:50:19;2.30;99.90
2611;DHT22;5612;51.134;17.058;2023-02-23T01:52:50;2.30;99.90
2611;DHT22;5612;51.134;17.058;2023-02-23T01:55:21;2.20;99.90
2611;DHT22;5612;51.134;17.058;2023-02-23T01:57:55;2.30;99.90
2611;DHT22;5612;51.134;17.058;2023-02-23T02:00:26;2.30;99.90
2611;DHT22;5612;51.134;17.058;2023-02-23T02:03:02;2.30;99.90
2611;DHT22;5612;51.134;17.058;2023-02-23T02:05:36;2.30;99.90
2611;DHT22;5612;51.134;17.058;2023-02-23T02:08:08;2.40;99.90
2611;DHT22;5612;51.134;17.058;2023-02-23T02:10:38;2.40;46.30
2611;DHT22;5612;51.134;17.058;2023-02-23T02:13:10;2.30;93.50
2611;DHT22;5612;51.134;17.058;2023-02-23T02:16:01;2.30;99.90
2611;DHT22;5612;51.134;17.058;2023-02-23T02:18:44;2.20;99.90
2611;DHT22;5612;51.134;17.058;2023-02-23T02:21:37;2.20;99.90
2611;DHT22;5612;51.134;17.058;2023-02-23T02:27:45;2.20;99.90
2611;DHT22;5612;51.134;17.058;2023-02-23T02:30:42;2.10;99.90
2611;DHT22;5612;51.134;17.058;2023-02-23T02:33:38;2.10;99.90
2611;DHT22;5612;51.134;17.058;2023-02-23T02:36:36;2.20;99.90
2611;DHT22;5612;51.134;17.058;2023-02-23T02:39:11;2.20;99.90
2611;DHT22;5612;51.134;17.058;2023-02-23T02:41:55;2.10;99.90
2611;DHT22;5612;51.134;17.058;2023-02-23T02:44:35;2.20;99.90
2611;DHT22;5612;51.134;17.058;2023-02-23T02:47:11;2.10;99.90
2611;DHT22;5612;51.134;17.058;2023-02-23T02:49:50;2.10;99.90
2611;DHT22;5612;51.134;17.058;2023-02-23T02:52:24;2.10;99.90
2611;DHT22;5612;51.134;17.058;2023-02-23T02:54:57;2.10;99.90
2611;DHT22;5612;51.134;17.058;2023-02-23T02:57:30;2.10;99.90
2611;DHT22;5612;51.134;17.058;2023-02-23T03:00:00;2.00;99.90
2611;DHT22;5612;51.134;17.058;2023-02-23T03:02:47;1.90;99.90
2611;DHT22;5612;51.134;17.058;2023-02-23T03:05:40;1.90;1.00
2611;DHT22;5612;51.134;17.058;2023-02-23T03:08:35;2.00;1.00
2611;DHT22;5612;51.134;17.058;2023-02-23T03:11:24;2.00;1.00
2611;DHT22;5612;51.134;17.058;2023-02-23T03:14:21;2.00;1.00
2611;DHT22;5612;51.134;17.058;2023-02-23T03:17:15;1.90;1.00
2611;DHT22;5612;51.134;17.058;2023-02-23T03:20:11;1.90;1.00
2611;DHT22;5612;51.134;17.058;2023-02-23T03:23:03;1.80;1.00
2611;DHT22;5612;51.134;17.058;2023-02-23T03:26:01;1.90;1.00
2611;DHT22;5612;51.134;17.058;2023-02-23T03:28:54;1.90;1.00
2611;DHT22;5612;51.134;17.058;2023-02-23T03:31:47;1.80;1.00
2611;DHT22;5612;51.134;17.058;2023-02-23T03:34:41;1.90;1.00
2611;DHT22;5612;51.134;17.058;2023-02-23T03:37:33;1.90;1.00
2611;DHT22;5612;51.134;17.058;2023-02-23T03:40:24;1.80;1.00
2611;DHT22;5612;51.134;17.058;2023-02-23T03:43:16;1.80;1.00
2611;DHT22;5612;51.134;17.058;2023-02-23T03:46:07;1.80;1.00
2611;DHT22;5612;51.134;17.058;2023-02-23T03:48:57;1.80;1.00
2611;DHT22;5612;51.134;17.058;2023-02-23T03:51:48;1.80;1.00
2611;DHT22;5612;51.134;17.058;2023-02-23T03:54:40;1.90;1.00
2611;DHT22;5612;51.134;17.058;2023-02-23T03:57:31;1.90;1.00
2611;DHT22;5612;51.134;17.058;2023-02-23T04:00:24;1.90;1.00
2611;DHT22;5612;51.134;17.058;2023-02-23T04:03:15;1.90;1.00
2611;DHT22;5612;51.134;17.058;2023-02-23T04:06:04;2.00;1.00
2611;DHT22;5612;51.134;17.058;2023-02-23T04:08:53;1.90;1.00
2611;DHT22;5612;51.134;17.058;2023-02-23T04:11:45;1.90;1.00
2611;DHT22;5612;51.134;17.058;2023-02-23T04:14:38;1.80;1.00
2611;DHT22;5612;51.134;17.058;2023-02-23T04:17:10;1.80;1.00
2611;DHT22;5612;51.134;17.058;2023-02-23T04:19:48;1.80;1.00
2611;DHT22;5612;51.134;17.058;2023-02-23T04:22:18;1.80;1.00
2611;DHT22;5612;51.134;17.058;2023-02-23T04:24:48;1.90;1.00
2611;DHT22;5612;51.134;17.058;2023-02-23T04:27:18;1.90;1.00
2611;DHT22;5612;51.134;17.058;2023-02-23T04:29:48;1.90;1.00
2611;DHT22;5612;51.134;17.058;2023-02-23T04:32:21;2.00;1.00
2611;DHT22;5612;51.134;17.058;2023-02-23T04:34:51;1.90;1.00
2611;DHT22;5612;51.134;17.058;2023-02-23T04:37:20;2.00;1.00
2611;DHT22;5612;51.134;17.058;2023-02-23T04:39:50;1.90;1.00
2611;DHT22;5612;51.134;17.058;2023-02-23T04:42:20;1.90;1.00
2611;DHT22;5612;51.134;17.058;2023-02-23T04:44:49;1.90;1.00
2611;DHT22;5612;51.134;17.058;2023-02-23T04:47:20;1.90;1.00
2611;DHT22;5612;51.134;17.058;2023-02-23T04:49:51;2.00;1.00
2611;DHT22;5612;51.134;17.058;2023-02-23T04:52:20;1.90;1.00
2611;DHT22;5612;51.134;17.058;2023-02-23T04:54:50;1.80;1.00
2611;DHT22;5612;51.134;17.058;2023-02-23T04:57:20;1.80;1.00
2611;DHT22;5612;51.134;17.058;2023-02-23T04:59:49;1.90;1.00
2611;DHT22;5612;51.134;17.058;2023-02-23T05:02:20;1.90;1.00
2611;DHT22;5612;51.134;17.058;2023-02-23T05:04:51;1.90;1.00
2611;DHT22;5612;51.134;17.058;2023-02-23T05:07:20;2.00;1.00
2611;DHT22;5612;51.134;17.058;2023-02-23T05:09:50;2.10;1.00
2611;DHT22;5612;51.134;17.058;2023-02-23T05:12:20;2.00;1.00
2611;DHT22;5612;51.134;17.058;2023-02-23T05:14:49;1.90;1.00
2611;DHT22;5612;51.134;17.058;2023-02-23T05:17:21;1.90;1.00
2611;DHT22;5612;51.134;17.058;2023-02-23T05:19:50;1.90;1.00
2611;DHT22;5612;51.134;17.058;2023-02-23T05:22:20;1.90;1.00
2611;DHT22;5612;51.134;17.058;2023-02-23T05:24:49;1.90;1.00
2611;DHT22;5612;51.134;17.058;2023-02-23T05:27:19;1.90;1.00
2611;DHT22;5612;51.134;17.058;2023-02-23T05:29:49;1.80;1.00
2611;DHT22;5612;51.134;17.058;2023-02-23T05:32:20;1.80;1.00
2611;DHT22;5612;51.134;17.058;2023-02-23T05:34:50;1.80;1.00
2611;DHT22;5612;51.134;17.058;2023-02-23T05:37:19;1.80;1.00
2611;DHT22;5612;51.134;17.058;2023-02-23T05:39:49;1.80;1.00
2611;DHT22;5612;51.134;17.058;2023-02-23T05:42:18;1.80;1.00
2611;DHT22;5612;51.134;17.058;2023-02-23T05:44:48;1.80;1.00
2611;DHT22;5612;51.134;17.058;2023-02-23T05:47:18;1.70;1.00
2611;DHT22;5612;51.134;17.058;2023-02-23T05:49:48;1.70;1.00
2611;DHT22;5612;51.134;17.058;2023-02-23T05:52:18;1.70;1.00
2611;DHT22;5612;51.134;17.058;2023-02-23T05:54:47;1.70;1.00
2611;DHT22;5612;51.134;17.058;2023-02-23T05:57:16;1.70;1.00
2611;DHT22;5612;51.134;17.058;2023-02-23T05:59:46;1.70;1.00
2611;DHT22;5612;51.134;17.058;2023-02-23T06:02:15;1.80;1.00
2611;DHT22;5612;51.134;17.058;2023-02-23T06:04:45;1.70;1.00
2611;DHT22;5612;51.134;17.058;2023-02-23T06:07:16;1.60;1.00
2611;DHT22;5612;51.134;17.058;2023-02-23T06:09:45;1.70;1.00
2611;DHT22;5612;51.134;17.058;2023-02-23T06:12:15;1.70;1.00
2611;DHT22;5612;51.134;17.058;2023-02-23T06:14:45;1.70;1.00
2611;DHT22;5612;51.134;17.058;2023-02-23T06:17:14;1.80;1.00
2611;DHT22;5612;51.134;17.058;2023-02-23T06:19:43;1.80;1.00
2611;DHT22;5612;51.134;17.058;2023-02-23T06:22:15;1.80;1.00
2611;DHT22;5612;51.134;17.058;2023-02-23T06:24:45;1.90;1.00
2611;DHT22;5612;51.134;17.058;2023-02-23T06:27:16;1.90;1.00
2611;DHT22;5612;51.134;17.058;2023-02-23T06:29:47;2.00;1.00
2611;DHT22;5612;51.134;17.058;2023-02-23T06:32:16;2.00;1.00
2611;DHT22;5612;51.134;17.058;2023-02-23T06:34:47;2.00;1.00
2611;DHT22;5612;51.134;17.058;2023-02-23T06:37:18;2.10;1.00
2611;DHT22;5612;51.134;17.058;2023-02-23T06:39:47;2.10;1.00
2611;DHT22;5612;51.134;17.058;2023-02-23T06:42:16;2.20;1.00
2611;DHT22;5612;51.134;17.058;2023-02-23T06:44:45;2.30;1.00
2611;DHT22;5612;51.134;17.058;2023-02-23T06:47:14;2.30;1.00
2611;DHT22;5612;51.134;17.058;2023-02-23T06:49:42;2.40;1.00
2611;DHT22;5612;51.134;17.058;2023-02-23T06:52:11;2.30;1.00
2611;DHT22;5612;51.134;17.058;2023-02-23T06:54:42;2.40;1.00
2611;DHT22;5612;51.134;17.058;2023-02-23T06:57:11;2.50;99.90
2611;DHT22;5612;51.134;17.058;2023-02-23T06:59:39;2.50;99.90
2611;DHT22;5612;51.134;17.058;2023-02-23T07:02:10;2.60;99.90
2611;DHT22;5612;51.134;17.058;2023-02-23T07:04:39;2.60;99.90
2611;DHT22;5612;51.134;17.058;2023-02-23T07:07:08;2.70;99.90
2611;DHT22;5612;51.134;17.058;2023-02-23T07:09:38;2.70;99.90
2611;DHT22;5612;51.134;17.058;2023-02-23T07:12:10;2.80;1.00
2611;DHT22;5612;51.134;17.058;2023-02-23T07:14:39;2.80;1.00
2611;DHT22;5612;51.134;17.058;2023-02-23T07:17:09;2.90;1.00
2611;DHT22;5612;51.134;17.058;2023-02-23T07:19:38;3.00;99.90
2611;DHT22;5612;51.134;17.058;2023-02-23T07:22:07;3.00;99.90
2611;DHT22;5612;51.134;17.058;2023-02-23T07:24:36;3.10;26.10
2611;DHT22;5612;51.134;17.058;2023-02-23T07:27:06;3.10;99.90
2611;DHT22;5612;51.134;17.058;2023-02-23T07:29:36;3.20;99.90
2611;DHT22;5612;51.134;17.058;2023-02-23T07:32:05;3.30;99.90
2611;DHT22;5612;51.134;17.058;2023-02-23T07:34:34;3.50;99.90
2611;DHT22;5612;51.134;17.058;2023-02-23T07:37:03;3.60;12.60
2611;DHT22;5612;51.134;17.058;2023-02-23T07:39:32;3.80;1.00
2611;DHT22;5612;51.134;17.058;2023-02-23T07:42:00;4.00;99.90
2611;DHT22;5612;51.134;17.058;2023-02-23T07:44:29;4.10;99.90
2611;DHT22;5612;51.134;17.058;2023-02-23T07:46:59;4.40;99.90
2611;DHT22;5612;51.134;17.058;2023-02-23T07:49:28;4.80;1.00
2611;DHT22;5612;51.134;17.058;2023-02-23T07:51:57;5.20;99.90
2611;DHT22;5612;51.134;17.058;2023-02-23T07:54:26;5.40;99.90
2611;DHT22;5612;51.134;17.058;2023-02-23T07:56:55;5.80;99.90
2611;DHT22;5612;51.134;17.058;2023-02-23T07:59:25;6.10;99.90
2611;DHT22;5612;51.134;17.058;2023-02-23T08:01:59;6.50;99.90
2611;DHT22;5612;51.134;17.058;2023-02-23T08:04:28;7.10;99.90
2611;DHT22;5612;51.134;17.058;2023-02-23T08:06:57;7.40;61.00
2611;DHT22;5612;51.134;17.058;2023-02-23T08:09:26;7.70;24.60
2611;DHT22;5612;51.134;17.058;2023-02-23T08:11:56;7.90;11.40
2611;DHT22;5612;51.134;17.058;2023-02-23T08:14:25;8.30;1.00
2611;DHT22;5612;51.134;17.058;2023-02-23T08:16:54;8.70;1.00
2611;DHT22;5612;51.134;17.058;2023-02-23T08:19:24;8.90;1.00
2611;DHT22;5612;51.134;17.058;2023-02-23T08:21:54;9.20;1.00
2611;DHT22;5612;51.134;17.058;2023-02-23T08:24:24;9.20;1.00
2611;DHT22;5612;51.134;17.058;2023-02-23T08:26:53;9.20;1.00
2611;DHT22;5612;51.134;17.058;2023-02-23T08:29:22;9.50;1.00
2611;DHT22;5612;51.134;17.058;2023-02-23T08:31:53;9.70;1.00
2611;DHT22;5612;51.134;17.058;2023-02-23T08:34:25;9.90;1.00
2611;DHT22;5612;51.134;17.058;2023-02-23T08:36:55;10.30;1.00
2611;DHT22;5612;51.134;17.058;2023-02-23T08:39:24;10.80;1.00
2611;DHT22;5612;51.134;17.058;2023-02-23T08:41:53;11.30;1.00
2611;DHT22;5612;51.134;17.058;2023-02-23T08:44:22;11.80;1.00
2611;DHT22;5612;51.134;17.058;2023-02-23T08:46:51;11.50;1.00
2611;DHT22;5612;51.134;17.058;2023-02-23T08:49:22;11.50;1.00
2611;DHT22;5612;51.134;17.058;2023-02-23T08:51:52;11.90;1.00
2611;DHT22;5612;51.134;17.058;2023-02-23T08:54:21;12.40;1.00
2611;DHT22;5612;51.134;17.058;2023-02-23T08:56:49;12.00;1.00
2611;DHT22;5612;51.134;17.058;2023-02-23T08:59:18;12.20;1.00
2611;DHT22;5612;51.134;17.058;2023-02-23T09:01:47;12.60;1.00
2611;DHT22;5612;51.134;17.058;2023-02-23T09:04:16;13.30;1.00
2611;DHT22;5612;51.134;17.058;2023-02-23T09:06:45;13.40;1.00
2611;DHT22;5612;51.134;17.058;2023-02-23T09:09:17;13.20;1.00
2611;DHT22;5612;51.134;17.058;2023-02-23T09:11:46;13.50;1.00
2611;DHT22;5612;51.134;17.058;2023-02-23T09:14:15;13.60;1.00
2611;DHT22;5612;51.134;17.058;2023-02-23T09:16:44;13.80;1.00
2611;DHT22;5612;51.134;17.058;2023-02-23T09:19:13;13.40;1.00
2611;DHT22;5612;51.134;17.058;2023-02-23T09:21:43;13.70;1.00
2611;DHT22;5612;51.134;17.058;2023-02-23T09:24:12;14.70;1.00
2611;DHT22;5612;51.134;17.058;2023-02-23T09:26:42;15.30;1.00
2611;DHT22;5612;51.134;17.058;2023-02-23T09:29:12;16.40;1.00
2611;DHT22;5612;51.134;17.058;2023-02-23T09:31:40;17.30;1.00
2611;DHT22;5612;51.134;17.058;2023-02-23T09:34:10;17.50;1.00
2611;DHT22;5612;51.134;17.058;2023-02-23T09:36:39;17.80;1.00
2611;DHT22;5612;51.134;17.058;2023-02-23T09:39:07;18.10;1.00
2611;DHT22;5612;51.134;17.058;2023-02-23T09:41:55;18.60;1.00
2611;DHT22;5612;51.134;17.058;2023-02-23T09:44:35;18.60;1.00
2611;DHT22;5612;51.134;17.058;2023-02-23T09:47:17;18.80;1.00
2611;DHT22;5612;51.134;17.058;2023-02-23T09:49:50;17.90;1.00
2611;DHT22;5612;51.134;17.058;2023-02-23T09:52:24;17.20;1.00
2611;DHT22;5612;51.134;17.058;2023-02-23T09:54:53;17.10;1.00
2611;DHT22;5612;51.134;17.058;2023-02-23T09:57:30;17.50;1.00
2611;DHT22;5612;51.134;17.058;2023-02-23T10:00:01;17.30;1.00
2611;DHT22;5612;51.134;17.058;2023-02-23T10:02:37;17.40;1.00
2611;DHT22;5612;51.134;17.058;2023-02-23T10:05:13;18.00;1.00
2611;DHT22;5612;51.134;17.058;2023-02-23T10:07:46;18.40;1.00
2611;DHT22;5612;51.134;17.058;2023-02-23T10:10:21;18.60;1.00
2611;DHT22;5612;51.134;17.058;2023-02-23T10:13:00;18.50;1.00
2611;DHT22;5612;51.134;17.058;2023-02-23T10:15:36;18.60;1.00
2611;DHT22;5612;51.134;17.058;2023-02-23T10:18:17;18.30;1.00
2611;DHT22;5612;51.134;17.058;2023-02-23T10:21:14;18.00;1.00
2611;DHT22;5612;51.134;17.058;2023-02-23T10:23:46;18.80;1.00
2611;DHT22;5612;51.134;17.058;2023-02-23T10:26:20;19.20;1.00
2611;DHT22;5612;51.134;17.058;2023-02-23T10:28:53;19.40;1.00
2611;DHT22;5612;51.134;17.058;2023-02-23T10:31:27;18.90;1.00
2611;DHT22;5612;51.134;17.058;2023-02-23T10:34:02;18.80;1.00
2611;DHT22;5612;51.134;17.058;2023-02-23T10:36:35;19.10;1.00
2611;DHT22;5612;51.134;17.058;2023-02-23T10:39:05;19.60;1.00
2611;DHT22;5612;51.134;17.058;2023-02-23T10:41:36;19.60;1.00
2611;DHT22;5612;51.134;17.058;2023-02-23T10:44:14;19.80;1.00
2611;DHT22;5612;51.134;17.058;2023-02-23T10:46:48;19.40;1.00
2611;DHT22;5612;51.134;17.058;2023-02-23T10:49:23;19.40;1.00
2611;DHT22;5612;51.134;17.058;2023-02-23T10:51:56;19.50;1.00
2611;DHT22;5612;51.134;17.058;2023-02-23T10:54:37;19.60;1.00
2611;DHT22;5612;51.134;17.058;2023-02-23T10:57:07;19.40;1.00
2611;DHT22;5612;51.134;17.058;2023-02-23T10:59:37;19.90;1.00
2611;DHT22;5612;51.134;17.058;2023-02-23T11:02:22;19.90;1.00
2611;DHT22;5612;51.134;17.058;2023-02-23T11:04:54;19.70;1.00
2611;DHT22;5612;51.134;17.058;2023-02-23T11:07:24;19.30;1.00
2611;DHT22;5612;51.134;17.058;2023-02-23T11:09:56;18.60;1.00
2611;DHT22;5612;51.134;17.058;2023-02-23T11:12:28;18.20;1.00
2611;DHT22;5612;51.134;17.058;2023-02-23T11:15:25;18.30;1.00
2611;DHT22;5612;51.134;17.058;2023-02-23T11:18:20;18.00;1.00
2611;DHT22;5612;51.134;17.058;2023-02-23T11:20:50;17.80;1.00
2611;DHT22;5612;51.134;17.058;2023-02-23T11:23:23;18.00;1.00
2611;DHT22;5612;51.134;17.058;2023-02-23T11:25:57;17.50;1.00
2611;DHT22;5612;51.134;17.058;2023-02-23T11:28:33;17.20;1.00
2611;DHT22;5612;51.134;17.058;2023-02-23T11:31:14;17.40;1.00
2611;DHT22;5612;51.134;17.058;2023-02-23T11:33:44;17.30;1.00
2611;DHT22;5612;51.134;17.058;2023-02-23T11:36:26;17.40;1.00
2611;DHT22;5612;51.134;17.058;2023-02-23T11:39:19;17.30;1.00
2611;DHT22;5612;51.134;17.058;2023-02-23T11:42:13;17.30;1.00
2611;DHT22;5612;51.134;17.058;2023-02-23T11:44:42;17.00;1.00
2611;DHT22;5612;51.134;17.058;2023-02-23T11:47:16;16.50;1.00
2611;DHT22;5612;51.134;17.058;2023-02-23T11:49:47;16.40;1.00
2611;DHT22;5612;51.134;17.058;2023-02-23T11:52:21;16.30;1.00
2611;DHT22;5612;51.134;17.058;2023-02-23T11:54:53;16.00;1.00
2611;DHT22;5612;51.134;17.058;2023-02-23T11:57:26;15.60;1.00
2611;DHT22;5612;51.134;17.058;2023-02-23T12:00:01;15.50;1.00
2611;DHT22;5612;51.134;17.058;2023-02-23T12:02:48;15.00;1.00
2611;DHT22;5612;51.134;17.058;2023-02-23T12:05:25;14.60;1.00
2611;DHT22;5612;51.134;17.058;2023-02-23T12:08:03;14.50;1.00
2611;DHT22;5612;51.134;17.058;2023-02-23T12:10:41;14.50;1.00
2611;DHT22;5612;51.134;17.058;2023-02-23T12:13:26;14.40;1.00
2611;DHT22;5612;51.134;17.058;2023-02-23T12:16:00;14.70;1.00
2611;DHT22;5612;51.134;17.058;2023-02-23T12:18:39;14.80;1.00
2611;DHT22;5612;51.134;17.058;2023-02-23T12:21:24;15.10;1.00
2611;DHT22;5612;51.134;17.058;2023-02-23T12:24:02;15.40;1.00
2611;DHT22;5612;51.134;17.058;2023-02-23T12:26:38;15.50;1.00
2611;DHT22;5612;51.134;17.058;2023-02-23T12:29:17;15.90;1.00
2611;DHT22;5612;51.134;17.058;2023-02-23T12:31:50;16.20;1.00
2611;DHT22;5612;51.134;17.058;2023-02-23T12:34:27;16.00;1.00
2611;DHT22;5612;51.134;17.058;2023-02-23T12:36:59;15.60;1.00
2611;DHT22;5612;51.134;17.058;2023-02-23T12:39:37;15.20;1.00
2611;DHT22;5612;51.134;17.058;2023-02-23T12:42:13;15.20;1.00
2611;DHT22;5612;51.134;17.058;2023-02-23T12:44:46;15.20;1.00
2611;DHT22;5612;51.134;17.058;2023-02-23T12:47:25;15.40;1.00
2611;DHT22;5612;51.134;17.058;2023-02-23T12:50:01;15.50;1.00
2611;DHT22;5612;51.134;17.058;2023-02-23T12:52:36;15.50;1.00
2611;DHT22;5612;51.134;17.058;2023-02-23T12:55:09;15.60;1.00
2611;DHT22;5612;51.134;17.058;2023-02-23T12:57:44;15.70;1.00
2611;DHT22;5612;51.134;17.058;2023-02-23T13:00:38;15.50;1.00
2611;DHT22;5612;51.134;17.058;2023-02-23T13:03:38;15.30;1.00
2611;DHT22;5612;51.134;17.058;2023-02-23T13:06:12;15.20;1.00
2611;DHT22;5612;51.134;17.058;2023-02-23T13:08:55;15.20;1.00
2611;DHT22;5612;51.134;17.058;2023-02-23T13:11:45;15.40;1.00
2611;DHT22;5612;51.134;17.058;2023-02-23T13:14:22;15.60;1.00
2611;DHT22;5612;51.134;17.058;2023-02-23T13:16:58;16.00;1.00
2611;DHT22;5612;51.134;17.058;2023-02-23T13:19:34;16.50;1.00
2611;DHT22;5612;51.134;17.058;2023-02-23T13:22:24;16.70;1.00
2611;DHT22;5612;51.134;17.058;2023-02-23T13:24:58;16.20;1.00
2611;DHT22;5612;51.134;17.058;2023-02-23T13:27:34;16.00;1.00
2611;DHT22;5612;51.134;17.058;2023-02-23T13:30:09;15.80;1.00
2611;DHT22;5612;51.134;17.058;2023-02-23T13:32:38;15.80;1.00
2611;DHT22;5612;51.134;17.058;2023-02-23T13:35:13;16.10;1.00
2611;DHT22;5612;51.134;17.058;2023-02-23T13:37:49;16.30;1.00
2611;DHT22;5612;51.134;17.058;2023-02-23T13:40:25;16.50;1.00
2611;DHT22;5612;51.134;17.058;2023-02-23T13:43:04;16.80;1.00
2611;DHT22;5612;51.134;17.058;2023-02-23T13:45:49;17.00;1.00
2611;DHT22;5612;51.134;17.058;2023-02-23T13:48:39;17.10;1.00
2611;DHT22;5612;51.134;17.058;2023-02-23T13:51:34;17.30;1.00
2611;DHT22;5612;51.134;17.058;2023-02-23T13:54:22;17.40;1.00
2611;DHT22;5612;51.134;17.058;2023-02-23T13:56:54;17.90;1.00
2611;DHT22;5612;51.134;17.058;2023-02-23T13:59:25;17.90;1.00
2611;DHT22;5612;51.134;17.058;2023-02-23T14:01:56;18.20;1.00
2611;DHT22;5612;51.134;17.058;2023-02-23T14:04:33;18.20;1.00
2611;DHT22;5612;51.134;17.058;2023-02-23T14:07:04;18.30;1.00
2611;DHT22;5612;51.134;17.058;2023-02-23T14:09:50;18.30;1.00
2611;DHT22;5612;51.134;17.058;2023-02-23T14:12:23;18.10;1.00
2611;DHT22;5612;51.134;17.058;2023-02-23T14:14:53;18.00;1.00
2611;DHT22;5612;51.134;17.058;2023-02-23T14:17:52;17.60;1.00
2611;DHT22;5612;51.134;17.058;2023-02-23T14:20:45;16.70;1.00
2611;DHT22;5612;51.134;17.058;2023-02-23T14:29:24;16.00;1.00
2611;DHT22;5612;51.134;17.058;2023-02-23T14:31:56;15.70;1.00
2611;DHT22;5612;51.134;17.058;2023-02-23T14:34:44;15.50;1.00
2611;DHT22;5612;51.134;17.058;2023-02-23T14:37:16;15.20;1.00
2611;DHT22;5612;51.134;17.058;2023-02-23T14:39:48;15.20;1.00
2611;DHT22;5612;51.134;17.058;2023-02-23T14:42:24;15.20;1.00
2611;DHT22;5612;51.134;17.058;2023-02-23T14:44:54;15.10;1.00
2611;DHT22;5612;51.134;17.058;2023-02-23T14:47:25;15.00;1.00
2611;DHT22;5612;51.134;17.058;2023-02-23T14:49:57;14.90;1.00
2611;DHT22;5612;51.134;17.058;2023-02-23T14:52:28;15.00;1.00
2611;DHT22;5612;51.134;17.058;2023-02-23T14:55:13;14.90;1.00
2611;DHT22;5612;51.134;17.058;2023-02-23T14:57:46;14.90;1.00
2611;DHT22;5612;51.134;17.058;2023-02-23T15:00:19;14.70;1.00
2611;DHT22;5612;51.134;17.058;2023-02-23T15:02:54;14.70;1.00
2611;DHT22;5612;51.134;17.058;2023-02-23T15:05:26;14.60;1.00
2611;DHT22;5612;51.134;17.058;2023-02-23T15:07:59;14.60;1.00
2611;DHT22;5612;51.134;17.058;2023-02-23T15:10:32;14.40;1.00
2611;DHT22;5612;51.134;17.058;2023-02-23T15:13:09;14.20;1.00
2611;DHT22;5612;51.134;17.058;2023-02-23T15:15:41;13.90;1.00
2611;DHT22;5612;51.134;17.058;2023-02-23T15:21:36;13.60;1.00
2611;DHT22;5612;51.134;17.058;2023-02-23T15:24:10;13.50;1.00
2611;DHT22;5612;51.134;17.058;2023-02-23T15:26:40;13.50;1.00
2611;DHT22;5612;51.134;17.058;2023-02-23T15:29:16;13.30;1.00
2611;DHT22;5612;51.134;17.058;2023-02-23T15:31:47;13.10;1.00
2611;DHT22;5612;51.134;17.058;2023-02-23T15:34:22;12.90;1.00
2611;DHT22;5612;51.134;17.058;2023-02-23T15:36:56;12.70;1.00
2611;DHT22;5612;51.134;17.058;2023-02-23T15:39:33;12.60;1.00
2611;DHT22;5612;51.134;17.058;2023-02-23T15:42:05;12.60;1.00
2611;DHT22;5612;51.134;17.058;2023-02-23T15:44:36;12.60;1.00
2611;DHT22;5612;51.134;17.058;2023-02-23T15:47:19;12.60;1.00
2611;DHT22;5612;51.134;17.058;2023-02-23T15:49:49;12.50;1.00
2611;DHT22;5612;51.134;17.058;2023-02-23T15:52:21;12.40;7.00
2611;DHT22;5612;51.134;17.058;2023-02-23T15:54:55;12.30;11.10
2611;DHT22;5612;51.134;17.058;2023-02-23T15:57:30;12.30;14.60
2611;DHT22;5612;51.134;17.058;2023-02-23T16:00:09;12.30;16.80
2611;DHT22;5612;51.134;17.058;2023-02-23T16:02:44;12.20;21.90
2611;DHT22;5612;51.134;17.058;2023-02-23T16:05:19;12.10;22.90
2611;DHT22;5612;51.134;17.058;2023-02-23T16:08:00;11.70;54.40
2611;DHT22;5612;51.134;17.058;2023-02-23T16:10:42;11.60;87.20
2611;DHT22;5612;51.134;17.058;2023-02-23T16:13:15;11.60;89.70
2611;DHT22;5612;51.134;17.058;2023-02-23T16:15:47;11.50;84.20
2611;DHT22;5612;51.134;17.058;2023-02-23T16:18:19;11.40;95.20
2611;DHT22;5612;51.134;17.058;2023-02-23T16:20:51;11.40;99.90
2611;DHT22;5612;51.134;17.058;2023-02-23T16:23:26;11.30;99.90
2611;DHT22;5612;51.134;17.058;2023-02-23T16:26:05;11.30;99.90
2611;DHT22;5612;51.134;17.058;2023-02-23T16:28:44;11.20;99.90
2611;DHT22;5612;51.134;17.058;2023-02-23T16:31:22;11.20;99.90
2611;DHT22;5612;51.134;17.058;2023-02-23T16:33:56;11.20;99.90
2611;DHT22;5612;51.134;17.058;2023-02-23T16:36:34;11.10;99.90
2611;DHT22;5612;51.134;17.058;2023-02-23T16:39:10;11.00;99.90
2611;DHT22;5612;51.134;17.058;2023-02-23T16:41:39;10.90;99.90
2611;DHT22;5612;51.134;17.058;2023-02-23T16:44:13;10.70;99.90
2611;DHT22;5612;51.134;17.058;2023-02-23T16:47:09;10.70;99.90
2611;DHT22;5612;51.134;17.058;2023-02-23T16:49:39;10.60;99.90
2611;DHT22;5612;51.134;17.058;2023-02-23T16:52:16;10.70;99.90
2611;DHT22;5612;51.134;17.058;2023-02-23T16:54:45;10.60;99.90
2611;DHT22;5612;51.134;17.058;2023-02-23T16:57:24;10.60;99.90
2611;DHT22;5612;51.134;17.058;2023-02-23T16:59:59;10.50;99.90
2611;DHT22;5612;51.134;17.058;2023-02-23T17:02:50;10.50;99.90
2611;DHT22;5612;51.134;17.058;2023-02-23T17:05:26;10.50;99.90
2611;DHT22;5612;51.134;17.058;2023-02-23T17:07:57;10.40;99.90